Time;durP1;ratioP1;P1;durP2;ratioP2;P2;SDS_P1;SDS_P2;PMS_P1;PMS_P2;Temp;Humidity;BMP_temperature;BMP_pressure;BME280_temperature;BME280_humidity;BME280_pressure;Samples;Min_cycle;Max_cycle;Signal;HPM_P1;HPM_P2
2023/12/27 00:00:29;;;;;;;11.30;5.70;;;;;;;9.13;100.00;100666.15;107594;1252;58084;-80
2023/12/27 00:03:18;;;;;;;8.70;5.10;;;;;;;9.11;100.00;100668.54;107486;1242;62691;-79
2023/12/27 00:05:47;;;;;;;10.90;6.30;;;;;;;9.07;100.00;100665.52;107508;1240;62996;-79
2023/12/27 00:08:16;;;;;;;10.50;5.60;;;;;;;8.99;100.00;100664.06;107296;1244;61096;-81
2023/12/27 00:10:45;;;;;;;11.50;5.80;;;;;;;8.90;100.00;100669.91;107378;1252;60296;-80
2023/12/27 00:13:16;;;;;;;8.00;5.50;;;;;;;8.80;100.00;100666.94;107333;1252;71674;-81
2023/12/27 00:15:45;;;;;;;10.30;6.30;;;;;;;8.74;100.00;100666.95;107304;1241;59067;-80
2023/12/27 00:18:17;;;;;;;14.00;9.50;;;;;;;8.74;100.00;100674.06;107321;1241;61301;-78
2023/12/27 00:20:47;;;;;;;9.20;6.00;;;;;;;8.70;100.00;100682.32;107256;1251;73431;-78
2023/12/27 00:23:16;;;;;;;11.00;6.20;;;;;;;8.66;100.00;100689.37;107268;1245;61866;-80
2023/12/27 00:25:45;;;;;;;9.20;5.40;;;;;;;8.62;100.00;100702.64;107334;1248;60302;-77
2023/12/27 00:28:14;;;;;;;10.10;5.90;;;;;;;8.54;100.00;100708.39;107353;1241;63657;-79
2023/12/27 00:30:43;;;;;;;10.60;5.90;;;;;;;8.50;100.00;100714.84;107483;1241;58884;-78
2023/12/27 00:33:12;;;;;;;9.90;5.80;;;;;;;8.47;100.00;100714.37;107401;1252;58232;-76
2023/12/27 00:35:42;;;;;;;10.10;5.70;;;;;;;8.45;100.00;100714.66;107452;1250;73068;-75
2023/12/27 00:38:11;;;;;;;14.10;6.00;;;;;;;8.39;100.00;100718.14;107459;1242;61419;-80
2023/12/27 00:40:41;;;;;;;10.30;6.20;;;;;;;8.36;100.00;100726.66;107472;1245;59304;-77
2023/12/27 00:43:11;;;;;;;10.30;5.70;;;;;;;8.29;100.00;100728.98;107429;1243;73464;-77
2023/12/27 00:45:40;;;;;;;12.50;5.80;;;;;;;8.25;100.00;100732.21;107206;1242;62753;-75
2023/12/27 00:48:10;;;;;;;9.80;6.40;;;;;;;8.15;100.00;100734.70;107368;1241;59809;-80
2023/12/27 00:50:41;;;;;;;11.30;6.70;;;;;;;8.15;100.00;100734.75;107335;1241;72154;-83
2023/12/27 00:53:10;;;;;;;10.10;5.90;;;;;;;8.12;100.00;100740.27;107273;1251;62607;-81
2023/12/27 00:55:39;;;;;;;11.70;7.40;;;;;;;8.11;100.00;100744.83;107334;1242;59562;-78
2023/12/27 00:58:08;;;;;;;10.40;6.10;;;;;;;8.09;100.00;100739.25;107256;1243;63457;-78
2023/12/27 01:00:37;;;;;;;11.60;5.30;;;;;;;8.07;100.00;100739.54;107245;1241;59077;-78
2023/12/27 01:03:06;;;;;;;7.90;5.10;;;;;;;8.02;100.00;100741.08;107229;1243;59029;-78
2023/12/27 01:05:36;;;;;;;8.60;4.80;;;;;;;7.90;100.00;100733.46;107213;1250;73041;-78
2023/12/27 01:08:05;;;;;;;7.50;4.70;;;;;;;7.79;100.00;100733.84;107248;1241;71328;-77
2023/12/27 01:10:34;;;;;;;8.00;4.80;;;;;;;7.76;100.00;100731.54;107176;1244;61674;-78
2023/12/27 01:13:03;;;;;;;10.80;5.30;;;;;;;7.71;100.00;100734.83;107249;1242;62746;-81
2023/12/27 01:15:32;;;;;;;8.60;4.70;;;;;;;7.67;100.00;100738.83;107269;1244;59095;-80
2023/12/27 01:18:02;;;;;;;8.00;4.80;;;;;;;7.65;100.00;100740.21;107220;1244;60529;-79
2023/12/27 01:20:31;;;;;;;7.10;4.40;;;;;;;7.60;100.00;100740.86;107309;1250;74266;-83
2023/12/27 01:23:00;;;;;;;9.20;5.20;;;;;;;7.50;100.00;100740.75;107271;1252;62318;-78
2023/12/27 01:25:29;;;;;;;9.10;5.00;;;;;;;7.47;100.00;100737.09;107334;1240;60392;-79
2023/12/27 01:27:58;;;;;;;9.40;5.10;;;;;;;7.45;100.00;100742.05;107217;1244;74572;-80
2023/12/27 01:30:29;;;;;;;9.00;4.10;;;;;;;7.42;100.00;100744.15;107290;1242;59019;-80
2023/12/27 01:32:59;;;;;;;10.70;4.60;;;;;;;7.37;100.00;100746.19;107282;1240;60671;-79
2023/12/27 01:35:33;;;;;;;8.90;4.60;;;;;;;7.35;100.00;100741.08;107242;1244;72555;-79
2023/12/27 01:38:03;;;;;;;6.80;4.30;;;;;;;7.29;100.00;100745.93;107299;1250;72520;-80
2023/12/27 01:40:32;;;;;;;8.70;5.10;;;;;;;7.24;100.00;100748.16;107380;1241;69381;-83
2023/12/27 01:43:01;;;;;;;9.20;5.20;;;;;;;7.19;100.00;100749.17;107279;1244;63053;-77
2023/12/27 01:45:30;;;;;;;10.20;5.20;;;;;;;7.13;100.00;100751.87;107428;1241;58822;-76
2023/12/27 01:47:59;;;;;;;11.20;5.40;;;;;;;7.07;100.00;100757.94;107395;1243;59056;-77
2023/12/27 01:50:30;;;;;;;11.30;5.60;;;;;;;6.97;100.00;100762.14;107434;1246;63125;-79
2023/12/27 01:52:59;;;;;;;11.90;6.80;;;;;;;6.88;100.00;100764.72;107462;1245;71332;-77
2023/12/27 01:55:28;;;;;;;8.70;5.50;;;;;;;6.82;100.00;100770.30;107546;1248;69718;-78
2023/12/27 01:57:57;;;;;;;10.10;5.50;;;;;;;6.74;100.00;100772.27;107536;1245;73484;-77
2023/12/27 02:00:27;;;;;;;9.50;5.20;;;;;;;6.68;100.00;100765.16;107411;1240;59112;-79
2023/12/27 02:02:57;;;;;;;10.70;5.30;;;;;;;6.59;100.00;100766.20;107450;1250;57948;-78
2023/12/27 02:05:26;;;;;;;9.10;4.90;;;;;;;6.52;100.00;100766.73;107498;1244;61365;-78
2023/12/27 02:07:56;;;;;;;9.50;4.50;;;;;;;6.46;100.00;100767.96;107413;1244;60764;-77
2023/12/27 02:10:27;;;;;;;10.20;5.40;;;;;;;6.40;100.00;100769.14;107484;1240;60960;-79
2023/12/27 02:12:56;;;;;;;9.70;5.00;;;;;;;6.23;100.00;100777.14;107392;1252;71688;-79
2023/12/27 02:15:25;;;;;;;8.50;4.90;;;;;;;6.10;100.00;100787.64;107444;1244;61274;-78
2023/12/27 02:17:55;;;;;;;8.70;5.10;;;;;;;6.06;100.00;100791.85;107382;1246;61409;-77
2023/12/27 02:20:26;;;;;;;13.30;5.20;;;;;;;6.02;100.00;100799.13;107368;1244;62472;-80
2023/12/27 02:22:57;;;;;;;8.40;4.20;;;;;;;5.97;100.00;100803.42;107481;1239;70403;-78
2023/12/27 02:25:27;;;;;;;10.60;4.60;;;;;;;5.91;100.00;100798.35;107312;1248;59697;-75
2023/12/27 02:27:56;;;;;;;10.10;4.70;;;;;;;5.88;100.00;100798.14;107526;1252;63041;-75
2023/12/27 02:30:25;;;;;;;8.30;4.70;;;;;;;5.83;100.00;100798.86;107410;1243;61978;-76
2023/12/27 02:32:54;;;;;;;8.50;4.80;;;;;;;5.80;100.00;100795.95;107522;1241;61251;-75
2023/12/27 02:35:26;;;;;;;8.30;5.10;;;;;;;5.70;100.00;100800.43;107447;1245;61611;-77
2023/12/27 02:37:56;;;;;;;8.90;4.80;;;;;;;5.66;100.00;100802.85;107459;1241;61979;-76
2023/12/27 02:40:25;;;;;;;8.40;4.40;;;;;;;5.58;100.00;100802.73;107508;1245;59512;-76
2023/12/27 02:42:54;;;;;;;10.50;5.60;;;;;;;5.51;100.00;100801.00;107421;1252;63114;-75
2023/12/27 02:45:23;;;;;;;9.80;5.40;;;;;;;5.45;100.00;100796.83;107488;1242;58985;-76
2023/12/27 02:47:52;;;;;;;9.20;5.60;;;;;;;5.38;100.00;100797.19;107278;1244;61284;-77
2023/12/27 02:50:22;;;;;;;9.70;5.30;;;;;;;5.34;100.00;100798.10;107289;1253;62722;-77
2023/12/27 02:52:51;;;;;;;8.90;5.20;;;;;;;5.27;100.00;100807.71;107223;1247;61333;-76
2023/12/27 02:55:20;;;;;;;8.20;5.10;;;;;;;5.23;100.00;100816.41;107365;1252;70101;-78
2023/12/27 02:57:50;;;;;;;8.10;5.00;;;;;;;5.16;100.00;100812.27;107332;1241;63410;-77
2023/12/27 03:00:19;;;;;;;9.70;5.20;;;;;;;5.07;100.00;100811.27;107329;1244;60138;-79
2023/12/27 03:02:48;;;;;;;9.30;5.40;;;;;;;4.99;100.00;100814.23;107368;1241;59090;-81
2023/12/27 03:05:18;;;;;;;9.10;4.90;;;;;;;4.92;100.00;100804.95;107382;1241;72288;-79
2023/12/27 03:07:47;;;;;;;7.70;4.80;;;;;;;4.88;100.00;100795.14;107519;1241;72316;-79
2023/12/27 03:10:17;;;;;;;12.10;5.50;;;;;;;4.77;100.00;100791.32;107557;1247;71566;-79
2023/12/27 03:12:46;;;;;;;10.80;5.40;;;;;;;4.62;100.00;100804.27;107514;1252;73574;-77
2023/12/27 03:15:15;;;;;;;8.80;5.10;;;;;;;4.59;100.00;100803.02;107478;1239;59074;-78
2023/12/27 03:17:47;;;;;;;8.50;5.50;;;;;;;4.54;100.00;100805.63;107458;1241;59008;-77
2023/12/27 03:20:16;;;;;;;10.50;4.80;;;;;;;4.53;100.00;100803.80;107318;1252;63541;-78
2023/12/27 03:22:46;;;;;;;8.90;5.10;;;;;;;4.50;100.00;100796.70;107393;1241;71904;-80
2023/12/27 03:25:15;;;;;;;9.70;6.10;;;;;;;4.41;100.00;100795.73;107231;1250;59850;-80
2023/12/27 03:27:45;;;;;;;9.80;6.10;;;;;;;4.32;100.00;100801.17;107304;1252;73335;-80
2023/12/27 03:30:14;;;;;;;11.70;7.20;;;;;;;4.27;100.00;100803.61;107323;1241;62275;-80
2023/12/27 03:32:43;;;;;;;15.80;8.90;;;;;;;4.25;100.00;100804.02;107281;1253;57956;-77
2023/12/27 03:35:13;;;;;;;17.50;9.60;;;;;;;4.23;100.00;100800.34;107224;1245;74171;-77
2023/12/27 03:37:44;;;;;;;15.60;8.40;;;;;;;4.21;100.00;100795.95;107296;1252;62367;-77
2023/12/27 03:40:13;;;;;;;17.80;9.80;;;;;;;4.20;100.00;100806.52;107377;1252;69661;-79
2023/12/27 03:42:42;;;;;;;14.00;8.00;;;;;;;4.19;100.00;100812.25;107379;1241;65073;-80
2023/12/27 03:45:11;;;;;;;12.00;7.80;;;;;;;4.17;100.00;100815.40;107424;1242;61651;-74
2023/12/27 03:47:41;;;;;;;12.80;8.10;;;;;;;4.17;100.00;100821.79;107411;1245;61326;-79
2023/12/27 03:50:13;;;;;;;19.00;11.60;;;;;;;4.18;100.00;100832.46;107450;1240;74383;-79
2023/12/27 03:52:43;;;;;;;39.70;16.80;;;;;;;4.16;100.00;100855.45;107421;1242;61775;-79
2023/12/27 03:55:12;;;;;;;36.00;15.70;;;;;;;4.17;100.00;100861.80;107414;1242;70303;-79
2023/12/27 03:57:41;;;;;;;16.00;9.20;;;;;;;4.18;100.00;100870.36;107434;1244;71277;-80
2023/12/27 04:00:11;;;;;;;13.10;7.40;;;;;;;4.16;100.00;100874.24;107364;1247;62184;-75
2023/12/27 04:02:40;;;;;;;12.50;6.40;;;;;;;4.13;100.00;100877.67;107414;1242;57454;-76
2023/12/27 04:05:09;;;;;;;10.90;7.10;;;;;;;4.15;100.00;100882.40;107238;1253;62192;-76
2023/12/27 04:07:39;;;;;;;11.10;7.30;;;;;;;4.20;100.00;100870.95;107225;1240;71762;-76
2023/12/27 04:10:08;;;;;;;16.50;8.70;;;;;;;4.29;100.00;100874.23;107131;1242;70462;-77
2023/12/27 04:12:37;;;;;;;22.40;10.80;;;;;;;4.34;100.00;100876.23;107179;1244;63467;-78
2023/12/27 04:15:07;;;;;;;14.70;7.90;;;;;;;4.39;100.00;100879.44;107132;1244;63046;-79
2023/12/27 04:17:36;;;;;;;9.60;5.70;;;;;;;4.45;100.00;100879.03;107225;1242;58718;-76
2023/12/27 04:20:06;;;;;;;12.50;7.30;;;;;;;4.50;100.00;100882.57;107212;1244;63325;-76
2023/12/27 04:22:35;;;;;;;13.50;8.00;;;;;;;4.54;100.00;100888.79;107214;1250;60871;-77
2023/12/27 04:25:05;;;;;;;16.90;9.30;;;;;;;4.55;100.00;100899.46;107099;1248;68305;-79
2023/12/27 04:27:34;;;;;;;14.20;8.70;;;;;;;4.49;100.00;100895.92;107314;1242;62241;-77
2023/12/27 04:30:04;;;;;;;13.40;8.10;;;;;;;4.41;100.00;100896.60;107254;1252;58828;-78
2023/12/27 04:32:34;;;;;;;15.10;9.00;;;;;;;4.33;100.00;100896.79;107221;1244;61254;-79
2023/12/27 04:35:03;;;;;;;16.10;9.40;;;;;;;4.25;100.00;100895.43;107252;1252;73218;-79
2023/12/27 04:37:32;;;;;;;21.00;9.00;;;;;;;4.18;100.00;100893.64;107246;1239;70710;-79
2023/12/27 04:40:02;;;;;;;13.50;8.60;;;;;;;4.12;100.00;100902.38;107454;1242;69815;-80
2023/12/27 04:42:31;;;;;;;15.10;9.80;;;;;;;4.06;100.00;100902.45;107608;1250;72322;-78
2023/12/27 04:45:00;;;;;;;19.90;9.30;;;;;;;4.01;100.00;100913.67;107765;1242;58978;-80
2023/12/27 04:47:29;;;;;;;18.40;9.30;;;;;;;3.94;100.00;100917.04;107442;1253;60556;-79
2023/12/27 04:49:58;;;;;;;20.20;10.30;;;;;;;3.88;100.00;100923.70;107170;1242;74092;-77
2023/12/27 04:52:28;;;;;;;17.90;10.60;;;;;;;3.83;100.00;100924.92;107464;1253;62052;-78
2023/12/27 04:54:57;;;;;;;17.80;10.20;;;;;;;3.78;100.00;100922.56;107384;1240;60816;-77
2023/12/27 04:57:26;;;;;;;16.40;9.70;;;;;;;3.71;100.00;100917.33;107391;1252;62385;-77
2023/12/27 04:59:55;;;;;;;13.10;6.80;;;;;;;3.67;100.00;100926.96;107408;1245;59142;-77
2023/12/27 05:02:28;;;;;;;10.70;6.70;;;;;;;3.63;100.00;100940.36;107347;1253;57885;-79
2023/12/27 05:05:14;;;;;;;10.30;6.20;;;;;;;3.58;100.00;100938.02;107496;1244;63072;-77
2023/12/27 05:07:44;;;;;;;11.10;7.30;;;;;;;3.56;100.00;100930.51;107453;1243;62527;-78
2023/12/27 05:10:13;;;;;;;14.70;7.60;;;;;;;3.57;100.00;100929.95;107525;1244;70591;-78
2023/12/27 05:12:42;;;;;;;12.00;6.80;;;;;;;3.53;100.00;100933.21;107513;1250;73518;-79
2023/12/27 05:15:11;;;;;;;11.40;6.60;;;;;;;3.50;100.00;100939.48;107537;1242;58865;-79
2023/12/27 05:17:41;;;;;;;11.40;7.00;;;;;;;3.49;100.00;100940.61;107619;1242;58811;-82
2023/12/27 05:20:15;;;;;;;10.50;6.80;;;;;;;3.47;100.00;100934.83;107742;1242;63157;-81
2023/12/27 05:22:45;;;;;;;10.90;6.80;;;;;;;3.45;100.00;100940.05;108310;1242;69375;-80
2023/12/27 05:25:15;;;;;;;13.90;7.10;;;;;;;3.44;100.00;100942.13;108327;1245;70150;-79
2023/12/27 05:27:44;;;;;;;12.00;8.10;;;;;;;3.46;100.00;100943.45;107603;1242;72550;-79
2023/12/27 05:30:13;;;;;;;13.00;7.90;;;;;;;3.50;100.00;100948.45;107687;1245;63039;-81
2023/12/27 05:32:42;;;;;;;15.40;7.80;;;;;;;3.52;100.00;100959.42;107688;1242;60981;-80
2023/12/27 05:35:12;;;;;;;15.60;9.20;;;;;;;3.52;100.00;100975.62;107499;1251;73940;-81
2023/12/27 05:37:48;;;;;;;14.20;8.60;;;;;;;3.54;100.00;100983.63;107530;1247;71142;-81
2023/12/27 05:40:17;;;;;;;15.40;8.80;;;;;;;3.55;100.00;100980.81;107568;1244;59992;-79
2023/12/27 05:42:47;;;;;;;16.60;9.30;;;;;;;3.58;100.00;100982.41;107593;1242;73381;-80
2023/12/27 05:45:16;;;;;;;15.60;8.80;;;;;;;3.61;100.00;100987.80;107599;1242;59038;-79
2023/12/27 05:47:48;;;;;;;19.10;10.70;;;;;;;3.65;100.00;100989.05;107584;1253;58095;-80
2023/12/27 05:50:21;;;;;;;19.20;10.40;;;;;;;3.68;100.00;100988.42;107559;1242;62736;-80
2023/12/27 05:52:57;;;;;;;16.20;8.90;;;;;;;3.70;100.00;100983.69;107646;1251;70203;-79
2023/12/27 05:55:29;;;;;;;14.80;9.30;;;;;;;3.68;100.00;100992.54;107612;1242;60881;-77
2023/12/27 05:57:58;;;;;;;12.70;8.60;;;;;;;3.64;100.00;100997.52;107564;1241;74106;-81
2023/12/27 06:00:27;;;;;;;14.10;9.30;;;;;;;3.62;100.00;101004.51;107622;1245;61575;-78
2023/12/27 06:02:57;;;;;;;13.70;8.70;;;;;;;3.60;100.00;101003.19;107448;1252;61258;-80
2023/12/27 06:05:26;;;;;;;15.30;10.00;;;;;;;3.57;100.00;101016.20;107556;1243;63646;-81
2023/12/27 06:07:55;;;;;;;14.20;9.20;;;;;;;3.55;100.00;101028.73;107618;1241;61300;-79
